Time;durP1;ratioP1;P1;durP2;ratioP2;P2;SDS_P1;SDS_P2;PMS_P1;PMS_P2;Temp;Humidity;BMP_temperature;BMP_pressure;BME280_temperature;BME280_humidity;BME280_pressure;Samples;Min_cycle;Max_cycle;Signal;HPM_P1;HPM_P2
2022/08/16 00:01:25;;;;;;;12.93;7.63;;;22.70;99.90;;;;;;4150426;28;20653;-95
2022/08/16 00:03:26;;;;;;;14.40;7.60;;;22.60;99.90;;;;;;4150334;28;20165;-93
2022/08/16 00:05:27;;;;;;;16.70;8.75;;;22.60;99.90;;;;;;4117912;28;20178;-93
2022/08/16 00:07:29;;;;;;;15.13;7.72;;;22.60;99.90;;;;;;4150110;28;20564;-94
2022/08/16 00:09:30;;;;;;;11.13;7.35;;;22.60;99.90;;;;;;4149982;28;20173;-92
2022/08/16 00:11:31;;;;;;;12.18;7.80;;;22.50;99.90;;;;;;4150135;28;20177;-92
2022/08/16 00:13:32;;;;;;;9.63;7.78;;;22.50;99.90;;;;;;4117826;28;20182;-91
2022/08/16 00:15:40;;;;;;;14.52;7.85;;;22.50;99.90;;;;;;4150082;28;20173;-92
2022/08/16 00:17:42;;;;;;;13.43;8.05;;;22.50;99.90;;;;;;4149691;28;20201;-95
2022/08/16 00:19:43;;;;;;;11.50;7.97;;;22.50;99.90;;;;;;4149917;28;20718;-91
2022/08/16 00:21:45;;;;;;;13.23;7.85;;;22.40;99.90;;;;;;4117633;28;20205;-93
2022/08/16 00:23:46;;;;;;;12.85;9.00;;;22.40;99.90;;;;;;4149741;28;20176;-94
2022/08/16 00:25:47;;;;;;;12.55;7.85;;;22.40;99.90;;;;;;4149937;28;20207;-92
2022/08/16 00:27:48;;;;;;;12.32;8.90;;;22.40;99.90;;;;;;4149591;28;20672;-91
2022/08/16 00:29:49;;;;;;;11.23;8.15;;;22.30;99.90;;;;;;4149727;28;20172;-94
2022/08/16 00:31:51;;;;;;;13.18;9.05;;;22.40;99.90;;;;;;4149710;28;20203;-94
2022/08/16 00:33:52;;;;;;;14.82;8.63;;;22.30;99.90;;;;;;4149774;28;20187;-91
2022/08/16 00:35:53;;;;;;;10.23;8.35;;;22.30;99.90;;;;;;4117378;28;20615;-93
2022/08/16 00:37:57;;;;;;;15.60;8.63;;;22.20;99.90;;;;;;4149532;28;20188;-95
2022/08/16 00:39:57;;;;;;;17.45;8.55;;;22.20;99.90;;;;;;4149536;28;20621;-93
2022/08/16 00:41:59;;;;;;;11.63;8.40;;;22.20;99.90;;;;;;4117301;28;20180;-92
2022/08/16 00:44:09;;;;;;;14.55;8.88;;;22.20;99.90;;;;;;4149564;28;20215;-94
2022/08/16 00:46:24;;;;;;;15.52;8.82;;;22.20;99.90;;;;;;4149467;28;20177;-94
2022/08/16 00:48:25;;;;;;;15.98;8.48;;;22.20;99.90;;;;;;4149290;28;20530;-94
2022/08/16 00:50:29;;;;;;;12.10;8.73;;;22.10;99.90;;;;;;4117190;28;20185;-92
2022/08/16 00:52:30;;;;;;;13.48;8.93;;;22.00;99.90;;;;;;4149241;28;20236;-90
2022/08/16 00:54:32;;;;;;;18.33;9.45;;;21.90;99.90;;;;;;4117155;28;20261;-91
2022/08/16 00:56:37;;;;;;;16.30;8.93;;;21.90;99.90;;;;;;4149542;28;20653;-93
2022/08/16 00:58:41;;;;;;;13.57;8.80;;;21.80;99.90;;;;;;4149272;28;20196;-95
2022/08/16 01:00:45;;;;;;;13.15;8.45;;;21.80;99.90;;;;;;4149544;28;20189;-94
2022/08/16 01:02:46;;;;;;;13.15;8.82;;;21.80;99.90;;;;;;4149429;28;20561;-90
2022/08/16 01:04:47;;;;;;;15.27;8.00;;;21.80;99.90;;;;;;4117021;28;20170;-92
2022/08/16 01:06:48;;;;;;;9.95;7.85;;;21.70;99.90;;;;;;4149087;28;20204;-91
2022/08/16 01:08:54;;;;;;;10.82;8.15;;;21.70;99.90;;;;;;4148976;28;20282;-94
2022/08/16 01:10:56;;;;;;;10.07;7.80;;;21.80;99.90;;;;;;4149210;28;20693;-92
2022/08/16 01:12:59;;;;;;;17.98;8.00;;;21.80;99.90;;;;;;4149005;28;20208;-92
2022/08/16 01:15:00;;;;;;;15.30;8.07;;;21.80;99.90;;;;;;4149038;28;20212;-93
2022/08/16 01:17:03;;;;;;;16.33;8.40;;;21.80;99.90;;;;;;4148665;28;20172;-92
2022/08/16 01:19:27;;;;;;;10.77;7.85;;;21.80;99.90;;;;;;4148848;28;20177;-92
2022/08/16 01:21:46;;;;;;;13.23;8.43;;;21.80;99.90;;;;;;4148529;28;20177;-91
2022/08/16 01:24:08;;;;;;;10.65;7.97;;;21.70;99.90;;;;;;4148949;28;20173;-91
2022/08/16 01:26:09;;;;;;;12.80;8.60;;;21.60;99.90;;;;;;4148962;28;20187;-93
2022/08/16 01:28:14;;;;;;;12.35;8.90;;;21.60;99.90;;;;;;4116483;28;20190;-94
2022/08/16 01:30:20;;;;;;;14.05;8.65;;;21.60;99.90;;;;;;4148843;28;20177;-93
2022/08/16 01:32:21;;;;;;;12.27;8.13;;;21.60;99.90;;;;;;4148535;28;20738;-94
2022/08/16 01:34:22;;;;;;;15.20;7.90;;;21.60;99.90;;;;;;4116481;28;20170;-94
2022/08/16 01:36:23;;;;;;;12.82;8.63;;;21.50;99.90;;;;;;4148814;28;20195;-94
2022/08/16 01:38:34;;;;;;;12.30;8.70;;;21.50;99.90;;;;;;4116214;28;20241;-95
2022/08/16 01:40:35;;;;;;;12.32;8.18;;;21.50;99.90;;;;;;4148632;28;20184;-92
2022/08/16 01:42:36;;;;;;;16.63;9.20;;;21.40;99.90;;;;;;4116223;28;20205;-90
2022/08/16 01:44:38;;;;;;;15.38;9.30;;;21.30;99.90;;;;;;4148650;28;20572;-92
2022/08/16 01:46:42;;;;;;;15.20;8.75;;;21.10;99.90;;;;;;4148542;28;20169;-92
2022/08/16 01:48:47;;;;;;;13.25;9.20;;;21.10;99.90;;;;;;4148338;28;20207;-94
2022/08/16 01:50:49;;;;;;;11.75;8.20;;;21.10;99.90;;;;;;4149436;28;20534;-93
2022/08/16 01:52:50;;;;;;;16.05;9.05;;;21.10;99.90;;;;;;4152537;28;20216;-91
2022/08/16 01:55:01;;;;;;;15.20;9.57;;;21.10;99.90;;;;;;4119787;28;20185;-91
2022/08/16 01:57:06;;;;;;;9.95;8.30;;;21.00;99.90;;;;;;4148641;28;20173;-91
2022/08/16 01:59:11;;;;;;;11.60;8.40;;;21.00;99.90;;;;;;4148294;28;20177;-92
2022/08/16 02:01:13;;;;;;;19.02;9.95;;;20.90;99.90;;;;;;4148519;28;20173;-93
2022/08/16 02:03:14;;;;;;;17.23;9.07;;;20.90;99.90;;;;;;4148441;28;20212;-92
2022/08/16 02:05:14;;;;;;;13.38;8.43;;;20.90;99.90;;;;;;4116180;28;20174;-92
2022/08/16 02:07:17;;;;;;;14.35;8.95;;;20.90;99.90;;;;;;4148093;28;20168;-92
2022/08/16 02:09:22;;;;;;;11.38;8.50;;;20.90;99.90;;;;;;4148392;28;20314;-93
2022/08/16 02:11:25;;;;;;;12.93;8.68;;;20.90;99.90;;;;;;4148000;28;20522;-92
2022/08/16 02:13:26;;;;;;;13.75;9.15;;;20.80;99.90;;;;;;4147796;28;20207;-92
2022/08/16 02:15:30;;;;;;;13.65;9.32;;;20.70;99.90;;;;;;4116126;28;20178;-94
2022/08/16 02:17:31;;;;;;;14.05;9.93;;;20.70;99.90;;;;;;4148390;28;20235;-93
2022/08/16 02:19:35;;;;;;;14.90;9.60;;;20.60;99.90;;;;;;4148204;28;20255;-92
2022/08/16 02:21:36;;;;;;;16.08;9.57;;;20.60;99.90;;;;;;4148219;28;20184;-93
2022/08/16 02:23:37;;;;;;;14.70;10.00;;;20.50;99.90;;;;;;4115891;28;20253;-94
2022/08/16 02:25:38;;;;;;;13.57;10.27;;;20.40;99.90;;;;;;4115888;28;20523;-94
2022/08/16 02:27:41;;;;;;;15.68;10.73;;;20.40;99.90;;;;;;4147994;28;20207;-91
2022/08/16 02:29:42;;;;;;;12.63;10.60;;;20.40;99.90;;;;;;4148175;28;20185;-94
2022/08/16 02:31:48;;;;;;;14.50;10.85;;;20.40;99.90;;;;;;4132092;28;20205;-93
2022/08/16 02:33:49;;;;;;;18.40;10.77;;;20.40;99.90;;;;;;4150427;28;20173;-90
2022/08/16 02:36:01;;;;;;;16.95;10.68;;;20.30;99.90;;;;;;4120522;28;20169;-94
2022/08/16 02:38:03;;;;;;;17.48;11.07;;;20.30;99.90;;;;;;4151165;28;20296;-94
2022/08/16 02:40:05;;;;;;;21.30;11.52;;;20.20;99.90;;;;;;4151501;28;20169;-90
2022/08/16 02:42:06;;;;;;;22.55;11.68;;;20.20;99.90;;;;;;4151701;28;20648;-92
2022/08/16 02:44:10;;;;;;;22.05;11.05;;;20.20;99.90;;;;;;4119408;28;20178;-90
2022/08/16 02:46:11;;;;;;;12.43;10.20;;;20.20;99.90;;;;;;4119162;28;20241;-92
2022/08/16 02:48:12;;;;;;;17.10;12.07;;;20.20;99.90;;;;;;4151287;28;20250;-93
2022/08/16 02:50:13;;;;;;;15.15;11.48;;;20.20;99.90;;;;;;4151351;28;20633;-90
2022/08/16 02:52:14;;;;;;;13.52;11.02;;;20.20;99.90;;;;;;4118747;28;20198;-93
2022/08/16 02:54:15;;;;;;;17.50;11.55;;;20.20;99.90;;;;;;4134941;28;20268;-93
2022/08/16 02:56:18;;;;;;;16.27;11.32;;;20.10;99.90;;;;;;4151181;28;20271;-91
2022/08/16 02:58:21;;;;;;;17.98;11.68;;;20.10;99.90;;;;;;4150849;28;20192;-92
2022/08/16 03:00:22;;;;;;;14.85;10.77;;;20.20;99.90;;;;;;4151071;28;20204;-91
2022/08/16 03:02:24;;;;;;;20.45;12.07;;;20.10;99.90;;;;;;4119225;28;20162;-91
2022/08/16 03:04:25;;;;;;;19.02;11.50;;;20.00;99.90;;;;;;4151333;28;20181;-92
2022/08/16 03:06:27;;;;;;;17.20;12.48;;;20.10;99.90;;;;;;4151007;28;20223;-92
2022/08/16 03:08:32;;;;;;;17.75;12.00;;;20.10;99.90;;;;;;4150465;28;20248;-92
2022/08/16 03:10:33;;;;;;;13.73;10.27;;;20.10;99.90;;;;;;4151024;28;20181;-91
2022/08/16 03:12:34;;;;;;;15.32;11.38;;;20.20;99.90;;;;;;4150770;28;20585;-91
2022/08/16 03:14:35;;;;;;;18.05;11.88;;;20.10;99.90;;;;;;4134651;28;20221;-94
2022/08/16 03:16:38;;;;;;;17.08;12.40;;;20.10;99.90;;;;;;4151139;28;20168;-92
2022/08/16 03:18:40;;;;;;;17.13;11.95;;;20.00;99.90;;;;;;4150655;28;20357;-92
2022/08/16 03:20:42;;;;;;;17.25;12.68;;;20.00;99.90;;;;;;4150897;28;20165;-92
2022/08/16 03:22:43;;;;;;;16.02;11.63;;;20.00;99.90;;;;;;4150608;28;20181;-91
2022/08/16 03:24:46;;;;;;;15.85;12.30;;;20.00;99.90;;;;;;4151210;28;20169;-93
2022/08/16 03:26:47;;;;;;;16.23;12.55;;;20.10;99.90;;;;;;4118308;28;20174;-94
2022/08/16 03:28:48;;;;;;;14.60;12.00;;;20.10;99.90;;;;;;4150852;28;20553;-90
2022/08/16 03:30:50;;;;;;;21.50;12.55;;;20.10;99.90;;;;;;4118544;28;20229;-91
2022/08/16 03:32:52;;;;;;;21.10;12.40;;;20.00;99.90;;;;;;4150597;28;20255;-91
2022/08/16 03:34:54;;;;;;;18.13;12.57;;;20.10;99.90;;;;;;4134616;28;20178;-91
2022/08/16 03:36:56;;;;;;;19.67;12.75;;;20.10;99.90;;;;;;4118408;28;20276;-92
2022/08/16 03:38:57;;;;;;;15.45;12.23;;;20.00;99.90;;;;;;4150593;28;20192;-91
2022/08/16 03:40:59;;;;;;;18.55;12.20;;;19.90;99.90;;;;;;4118418;28;20175;-91
2022/08/16 03:43:05;;;;;;;19.55;11.75;;;19.90;99.90;;;;;;4150904;28;20165;-92
2022/08/16 03:45:07;;;;;;;22.38;12.05;;;19.80;99.90;;;;;;4150071;28;20204;-91
2022/08/16 03:47:10;;;;;;;17.27;12.95;;;19.80;99.90;;;;;;4150606;28;20207;-92
2022/08/16 03:49:11;;;;;;;19.58;12.73;;;19.80;99.90;;;;;;4118208;28;20178;-94
2022/08/16 03:51:12;;;;;;;17.85;12.57;;;19.80;99.90;;;;;;4117956;28;20185;-91
2022/08/16 03:53:18;;;;;;;16.65;11.77;;;19.80;99.90;;;;;;4149720;28;20228;-93
2022/08/16 03:55:20;;;;;;;14.82;11.98;;;19.80;99.90;;;;;;4150177;28;20181;-94
2022/08/16 03:57:21;;;;;;;17.92;12.48;;;19.70;99.90;;;;;;4133876;28;20180;-94
2022/08/16 03:59:22;;;;;;;20.95;12.55;;;19.60;99.90;;;;;;4150253;28;20272;-91
2022/08/16 04:01:25;;;;;;;19.17;13.63;;;19.60;99.90;;;;;;4118071;28;20265;-91
2022/08/16 04:03:27;;;;;;;19.42;12.93;;;19.40;99.90;;;;;;4133842;28;20662;-94
2022/08/16 04:05:28;;;;;;;18.75;12.93;;;19.30;99.90;;;;;;4150047;28;20176;-91
2022/08/16 04:07:29;;;;;;;18.63;12.52;;;19.20;99.90;;;;;;4150235;28;20279;-91
2022/08/16 04:09:30;;;;;;;19.60;12.40;;;19.20;99.90;;;;;;4133864;28;20182;-91
2022/08/16 04:11:31;;;;;;;17.90;13.10;;;19.20;99.90;;;;;;4150058;28;20193;-91
2022/08/16 04:13:33;;;;;;;19.55;13.13;;;19.20;99.90;;;;;;4117904;28;20178;-91
2022/08/16 04:15:34;;;;;;;17.73;12.80;;;19.20;99.90;;;;;;4150152;28;20180;-93
2022/08/16 04:17:45;;;;;;;18.20;12.65;;;19.20;99.90;;;;;;4118700;28;20257;-94
2022/08/16 04:19:47;;;;;;;20.23;13.05;;;19.30;99.90;;;;;;4149966;28;20200;-91
2022/08/16 04:21:50;;;;;;;19.88;13.88;;;19.30;99.90;;;;;;4150163;28;20251;-91
2022/08/16 04:23:56;;;;;;;18.35;12.30;;;19.30;99.90;;;;;;4118207;28;20193;-93
2022/08/16 04:25:57;;;;;;;20.92;12.65;;;19.30;99.90;;;;;;4149942;28;20177;-92
2022/08/16 04:27:58;;;;;;;15.90;11.50;;;19.30;99.90;;;;;;4133630;28;20204;-90
2022/08/16 04:30:01;;;;;;;19.90;13.07;;;19.30;99.90;;;;;;4149933;28;20689;-92
2022/08/16 04:32:02;;;;;;;21.25;13.45;;;19.30;99.90;;;;;;4149788;28;20218;-94
2022/08/16 04:34:06;;;;;;;14.77;10.70;;;19.30;99.90;;;;;;4149846;28;20311;-90
2022/08/16 04:36:08;;;;;;;19.10;12.18;;;19.40;99.90;;;;;;4149684;28;20192;-92
2022/08/16 04:38:09;;;;;;;18.50;11.63;;;19.50;99.90;;;;;;4133496;28;20200;-91
2022/08/16 04:40:16;;;;;;;14.60;11.50;;;19.60;99.90;;;;;;4148914;28;20644;-90
2022/08/16 04:42:19;;;;;;;17.35;11.88;;;19.80;99.90;;;;;;4149643;28;20577;-93
2022/08/16 04:44:21;;;;;;;17.27;11.50;;;20.10;99.90;;;;;;4149379;28;20267;-93
2022/08/16 04:46:22;;;;;;;16.33;11.10;;;20.30;99.90;;;;;;4149578;28;20176;-90
2022/08/16 04:48:23;;;;;;;14.82;11.23;;;20.40;99.90;;;;;;4133322;28;20245;-91
2022/08/16 04:50:29;;;;;;;21.02;11.65;;;20.50;99.90;;;;;;4148605;28;20203;-93
2022/08/16 04:52:43;;;;;;;20.63;12.32;;;20.80;99.90;;;;;;4147979;28;20207;-94
2022/08/16 04:54:43;;;;;;;17.83;12.00;;;20.80;99.90;;;;;;4117561;28;20196;-92
2022/08/16 04:56:44;;;;;;;14.02;11.73;;;20.90;99.90;;;;;;4132195;28;20272;-94
2022/08/16 04:58:45;;;;;;;18.73;12.18;;;20.90;99.90;;;;;;4117136;28;20198;-90
2022/08/16 05:00:46;;;;;;;17.67;12.52;;;20.90;99.90;;;;;;4150905;28;20645;-91
2022/08/16 05:02:53;;;;;;;15.82;12.20;;;21.00;99.90;;;;;;4128126;28;20170;-91
2022/08/16 05:04:54;;;;;;;15.50;11.48;;;21.00;99.90;;;;;;4160045;28;20173;-90
2022/08/16 05:06:55;;;;;;;17.63;12.20;;;20.90;99.90;;;;;;4149284;28;20657;-90
2022/08/16 05:09:27;;;;;;;17.30;11.93;;;21.00;99.90;;;;;;4121358;28;20201;-91
2022/08/16 05:11:29;;;;;;;15.52;11.23;;;21.00;99.90;;;;;;4149520;28;20208;-90
2022/08/16 05:13:32;;;;;;;19.90;12.20;;;21.00;99.90;;;;;;4132857;28;20186;-91
2022/08/16 05:15:35;;;;;;;19.15;12.23;;;21.00;99.90;;;;;;4133030;28;20166;-94
2022/08/16 05:17:36;;;;;;;20.75;12.52;;;21.00;99.90;;;;;;4148887;28;20211;-90
2022/08/16 05:19:42;;;;;;;28.23;12.38;;;20.90;99.90;;;;;;4148447;28;20268;-93
2022/08/16 05:21:48;;;;;;;37.70;12.88;;;20.60;99.90;;;;;;4148700;28;20553;-89
2022/08/16 05:23:50;;;;;;;25.15;11.60;;;20.40;99.90;;;;;;4148861;28;20177;-93
2022/08/16 05:25:51;;;;;;;26.58;12.50;;;20.30;99.90;;;;;;4149137;28;20177;-94
2022/08/16 05:27:54;;;;;;;23.92;12.43;;;20.20;99.90;;;;;;4116603;28;20698;-91
2022/08/16 05:29:55;;;;;;;23.60;11.75;;;20.20;99.90;;;;;;4149068;28;20180;-92
2022/08/16 05:31:56;;;;;;;23.80;12.57;;;20.10;99.90;;;;;;4148836;28;20201;-94
2022/08/16 05:33:59;;;;;;;20.13;12.35;;;20.10;99.90;;;;;;4116471;28;20232;-94
2022/08/16 05:36:00;;;;;;;18.52;12.02;;;20.20;99.90;;;;;;4132534;28;20166;-91
2022/08/16 05:38:04;;;;;;;15.82;12.30;;;20.40;99.90;;;;;;4148297;28;20189;-94
2022/08/16 05:40:10;;;;;;;19.52;12.50;;;20.50;99.90;;;;;;4148652;28;20177;-91
2022/08/16 05:42:10;;;;;;;19.52;11.60;;;20.60;99.90;;;;;;4148800;28;20169;-93
2022/08/16 05:44:14;;;;;;;19.33;12.30;;;20.60;99.90;;;;;;4116372;28;20174;-91
2022/08/16 05:46:17;;;;;;;18.13;11.60;;;20.50;99.90;;;;;;4148625;28;20180;-91
2022/08/16 05:48:18;;;;;;;17.00;12.10;;;20.50;99.90;;;;;;4115992;28;20228;-93
2022/08/16 05:50:28;;;;;;;17.52;11.00;;;20.60;99.90;;;;;;4149642;28;20184;-93
2022/08/16 05:52:30;;;;;;;19.10;12.60;;;20.70;99.90;;;;;;4116014;28;20220;-91
2022/08/16 05:54:31;;;;;;;20.25;12.35;;;20.70;99.90;;;;;;4148479;28;20633;-91
2022/08/16 05:56:34;;;;;;;19.10;11.82;;;20.80;99.90;;;;;;4116554;28;20634;-93
2022/08/16 05:58:34;;;;;;;27.23;12.45;;;20.80;99.90;;;;;;4148610;28;20193;-93
2022/08/16 06:00:36;;;;;;;15.98;12.30;;;20.90;99.90;;;;;;4116498;28;20186;-91
2022/08/16 06:02:37;;;;;;;22.88;11.77;;;21.00;99.90;;;;;;4148345;28;20204;-93
2022/08/16 06:04:38;;;;;;;19.98;11.95;;;21.10;99.90;;;;;;4116061;28;20233;-93
2022/08/16 06:06:47;;;;;;;25.35;12.30;;;21.10;99.90;;;;;;4132066;28;20236;-91
2022/08/16 06:08:48;;;;;;;22.75;11.35;;;21.30;99.90;;;;;;4148272;28;20204;-92
2022/08/16 06:10:49;;;;;;;19.50;11.43;;;21.20;99.90;;;;;;4148271;28;20172;-91
2022/08/16 06:12:50;;;;;;;22.50;11.70;;;21.40;99.90;;;;;;4148221;28;20239;-91
2022/08/16 06:14:51;;;;;;;23.33;11.38;;;21.40;99.90;;;;;;4132217;28;20173;-94
2022/08/16 06:16:54;;;;;;;18.63;11.05;;;21.50;99.90;;;;;;4148786;28;20172;-92
2022/08/16 06:18:55;;;;;;;19.27;11.82;;;21.50;99.90;;;;;;4148443;28;20188;-92
2022/08/16 06:20:56;;;;;;;19.10;12.13;;;21.60;99.90;;;;;;4116247;28;20174;-93
2022/08/16 06:22:59;;;;;;;16.58;11.02;;;21.60;99.90;;;;;;4148375;28;20625;-92
2022/08/16 06:25:05;;;;;;;20.00;11.00;;;21.80;99.90;;;;;;4132145;28;20701;-92
2022/08/16 06:27:06;;;;;;;21.98;12.07;;;22.00;99.90;;;;;;4148425;28;20165;-92
2022/08/16 06:29:08;;;;;;;20.70;10.45;;;22.00;99.90;;;;;;4132162;28;20181;-93
2022/08/16 06:31:14;;;;;;;18.73;11.40;;;22.20;99.90;;;;;;4147957;28;20177;-93
2022/08/16 06:33:18;;;;;;;19.60;11.25;;;22.30;99.90;;;;;;4147893;28;20219;-93
2022/08/16 06:35:19;;;;;;;14.10;11.23;;;22.30;99.90;;;;;;4148374;28;20514;-91
2022/08/16 06:37:23;;;;;;;14.88;11.43;;;22.30;99.90;;;;;;4147820;28;20264;-92
2022/08/16 06:39:24;;;;;;;21.10;10.52;;;22.20;99.90;;;;;;4164818;28;20156;-93
2022/08/16 06:41:29;;;;;;;17.65;10.65;;;22.10;99.90;;;;;;4147699;28;20743;-91
2022/08/16 06:43:41;;;;;;;16.15;11.68;;;22.10;99.90;;;;;;4146683;28;20171;-93
2022/08/16 06:45:47;;;;;;;17.95;11.20;;;22.10;99.90;;;;;;4131922;28;20569;-92
2022/08/16 06:48:09;;;;;;;16.10;11.27;;;22.20;99.90;;;;;;4131940;28;20198;-94
2022/08/16 06:50:10;;;;;;;19.80;11.32;;;22.30;99.90;;;;;;4148297;28;20271;-94
2022/08/16 06:52:17;;;;;;;19.02;10.73;;;22.20;99.90;;;;;;4147279;28;20208;-92
2022/08/16 06:54:18;;;;;;;18.40;10.18;;;22.40;99.90;;;;;;4131791;28;20517;-92
2022/08/16 06:56:19;;;;;;;21.42;10.90;;;22.50;99.90;;;;;;4148025;28;20211;-93
2022/08/16 06:58:32;;;;;;;27.45;11.38;;;22.70;99.90;;;;;;4116965;28;20685;-93
2022/08/16 07:00:39;;;;;;;20.25;10.30;;;22.90;99.90;;;;;;4147388;28;20207;-92
2022/08/16 07:02:44;;;;;;;19.90;9.32;;;23.30;99.90;;;;;;4147533;28;20228;-93
2022/08/16 07:04:45;;;;;;;17.58;9.70;;;23.60;99.90;;;;;;4148371;28;20280;-92
2022/08/16 07:06:52;;;;;;;11.10;8.93;;;23.80;99.90;;;;;;4116169;28;20202;-93
2022/08/16 07:08:54;;;;;;;17.38;8.90;;;24.00;99.90;;;;;;4147697;28;20219;-91
2022/08/16 07:10:55;;;;;;;14.88;8.93;;;24.20;99.90;;;;;;4115526;28;20175;-94
2022/08/16 07:12:56;;;;;;;18.05;8.55;;;24.40;99.90;;;;;;4147783;28;20271;-94
2022/08/16 07:14:59;;;;;;;10.10;7.90;;;24.60;99.90;;;;;;4115737;28;20233;-95
2022/08/16 07:17:00;;;;;;;14.10;7.68;;;24.70;99.90;;;;;;4148097;28;20606;-93
2022/08/16 07:19:02;;;;;;;14.65;7.68;;;24.90;99.90;;;;;;4116460;28;20669;-91
2022/08/16 07:21:08;;;;;;;12.65;7.18;;;25.30;99.90;;;;;;4151193;28;20545;-94
2022/08/16 07:23:09;;;;;;;13.13;7.78;;;25.40;99.90;;;;;;4150462;28;20173;-91
2022/08/16 07:25:18;;;;;;;11.40;7.40;;;25.40;99.90;;;;;;4119374;28;20662;-91
2022/08/16 07:27:20;;;;;;;12.00;7.80;;;25.80;99.90;;;;;;4150471;28;20170;-92
2022/08/16 07:29:24;;;;;;;10.85;6.60;;;26.20;99.90;;;;;;4150936;28;20512;-91
2022/08/16 07:31:26;;;;;;;13.98;6.90;;;27.30;99.90;;;;;;4150581;28;20296;-91
2022/08/16 07:33:26;;;;;;;15.48;7.13;;;28.50;99.90;;;;;;4150533;28;20232;-93
2022/08/16 07:35:27;;;;;;;9.00;6.60;;;29.80;99.90;;;;;;4150571;28;20184;-93
2022/08/16 07:37:28;;;;;;;12.70;6.93;;;30.20;99.90;;;;;;4134338;28;20268;-92
2022/08/16 07:39:46;;;;;;;10.27;6.70;;;30.40;99.90;;;;;;4148366;28;20509;-95
2022/08/16 07:41:47;;;;;;;14.23;6.55;;;30.90;99.90;;;;;;4150684;28;20172;-95
2022/08/16 07:43:48;;;;;;;11.75;6.35;;;31.30;99.90;;;;;;4118265;28;20174;-94
2022/08/16 07:45:51;;;;;;;9.88;5.97;;;31.20;99.90;;;;;;4150576;28;20201;-92
2022/08/16 07:47:52;;;;;;;8.82;5.47;;;31.80;99.90;;;;;;4150284;28;20254;-91
2022/08/16 07:49:53;;;;;;;11.65;6.50;;;32.30;99.90;;;;;;4118324;28;20170;-93
2022/08/16 07:51:55;;;;;;;12.02;6.15;;;32.50;99.90;;;;;;4150172;28;20596;-93
2022/08/16 07:53:56;;;;;;;13.57;6.00;;;32.00;99.90;;;;;;4149958;28;20242;-93
2022/08/16 07:56:01;;;;;;;11.80;5.78;;;32.20;99.90;;;;;;4149900;28;20242;-94
2022/08/16 07:58:08;;;;;;;9.73;5.70;;;33.10;99.90;;;;;;4149578;28;20763;-93
2022/08/16 08:00:11;;;;;;;9.38;5.93;;;33.80;99.90;;;;;;4150322;28;20169;-92
2022/08/16 08:02:15;;;;;;;15.13;6.03;;;34.30;99.90;;;;;;4166640;28;20179;-92
2022/08/16 08:04:18;;;;;;;10.82;5.57;;;33.80;99.90;;;;;;4150320;28;20183;-96
2022/08/16 08:06:21;;;;;;;12.98;5.40;;;33.20;99.90;;;;;;4150380;28;20165;-92
2022/08/16 08:08:22;;;;;;;16.85;6.90;;;32.60;99.90;;;;;;4149988;28;20196;-94
2022/08/16 08:10:24;;;;;;;8.98;5.70;;;32.40;99.90;;;;;;4150229;28;20188;-94
2022/08/16 08:12:26;;;;;;;14.00;5.85;;;31.80;99.90;;;;;;4149856;28;20724;-93
2022/08/16 08:14:26;;;;;;;11.48;6.22;;;31.50;99.90;;;;;;4149934;28;20174;-92
2022/08/16 08:16:28;;;;;;;11.65;5.78;;;31.70;99.90;;;;;;4117621;28;20182;-93
2022/08/16 08:18:28;;;;;;;7.07;5.28;;;32.10;99.90;;;;;;4149775;28;20339;-96
2022/08/16 08:20:30;;;;;;;8.70;5.15;;;32.70;99.90;;;;;;4117552;28;20662;-92
2022/08/16 08:22:33;;;;;;;6.75;5.28;;;33.90;99.90;;;;;;4149722;28;20168;-92
2022/08/16 08:24:38;;;;;;;12.98;5.90;;;34.70;99.90;;;;;;4149434;28;20556;-93
2022/08/16 08:26:40;;;;;;;7.22;4.57;;;35.30;99.90;;;;;;4150019;28;20268;-92
2022/08/16 08:28:41;;;;;;;6.63;4.50;;;36.10;99.90;;;;;;4117396;28;20542;-92
2022/08/16 08:30:42;;;;;;;6.07;4.60;;;36.40;99.90;;;;;;4148626;28;20208;-91
2022/08/16 08:32:43;;;;;;;4.65;4.10;;;36.30;99.90;;;;;;4133382;28;20251;-91
2022/08/16 08:34:44;;;;;;;9.88;4.30;;;35.90;99.90;;;;;;4149630;28;20173;-92
2022/08/16 08:36:47;;;;;;;9.35;4.47;;;34.80;99.90;;;;;;4117330;28;20201;-93
2022/08/16 08:39:09;;;;;;;9.63;4.40;;;34.20;99.90;;;;;;4152370;28;20179;-95
2022/08/16 08:41:10;;;;;;;11.13;4.72;;;33.70;99.90;;;;;;4133459;28;20177;-93
2022/08/16 08:43:11;;;;;;;8.68;4.20;;;33.00;99.90;;;;;;4149563;28;20168;-95
2022/08/16 08:45:14;;;;;;;7.82;3.72;;;32.50;99.90;;;;;;4133394;28;20176;-95
2022/08/16 08:47:15;;;;;;;8.93;4.00;;;32.10;99.90;;;;;;4149573;28;20649;-93
2022/08/16 08:49:17;;;;;;;10.60;3.95;;;31.90;99.90;;;;;;4149218;28;20247;-93
2022/08/16 08:51:18;;;;;;;6.43;4.03;;;31.50;99.90;;;;;;4149628;28;20192;-94
2022/08/16 08:53:27;;;;;;;9.02;4.55;;;31.00;99.90;;;;;;4133306;28;20208;-93
2022/08/16 08:55:30;;;;;;;9.70;3.92;;;31.80;99.90;;;;;;4149428;28;20216;-94
2022/08/16 08:57:31;;;;;;;6.32;4.03;;;32.10;99.90;;;;;;4149306;28;20203;-94
2022/08/16 08:59:50;;;;;;;5.47;3.92;;;32.70;99.90;;;;;;4133483;28;20280;-94
2022/08/16 09:01:53;;;;;;;8.50;3.58;;;33.00;99.90;;;;;;4149564;28;20738;-94
2022/08/16 09:03:54;;;;;;;9.07;3.90;;;33.10;99.90;;;;;;4149267;28;20187;-94
2022/08/16 09:05:55;;;;;;;6.53;3.80;;;33.30;99.90;;;;;;4149328;28;20176;-93
2022/08/16 09:07:56;;;;;;;6.78;4.45;;;33.20;99.90;;;;;;4116743;28;20705;-95
2022/08/16 09:10:07;;;;;;;7.10;3.75;;;32.60;99.90;;;;;;4150247;28;20176;-94
2022/08/16 09:12:11;;;;;;;7.25;4.13;;;31.80;99.90;;;;;;4148883;28;20612;-94
2022/08/16 09:14:26;;;;;;;14.15;3.80;;;31.50;99.90;;;;;;4147473;28;20191;-93
2022/08/16 09:16:28;;;;;;;5.18;3.50;;;31.40;99.90;;;;;;4149179;28;20177;-94
2022/08/16 09:18:29;;;;;;;6.13;3.38;;;31.50;99.90;;;;;;4116589;28;20193;-94
2022/08/16 09:20:30;;;;;;;6.53;3.40;;;31.60;99.90;;;;;;4132948;28;20208;-92
2022/08/16 09:22:31;;;;;;;6.50;3.50;;;32.10;99.90;;;;;;4148968;28;20522;-94
2022/08/16 09:24:34;;;;;;;9.55;3.50;;;32.50;99.90;;;;;;4116816;28;20672;-92
2022/08/16 09:26:35;;;;;;;6.78;3.85;;;32.80;99.90;;;;;;4149007;28;20637;-93
2022/08/16 09:28:37;;;;;;;7.15;3.63;;;32.50;99.90;;;;;;4116628;28;20197;-94
2022/08/16 09:30:45;;;;;;;9.45;3.35;;;32.80;99.90;;;;;;4148047;28;20171;-94
2022/08/16 09:32:46;;;;;;;6.68;3.60;;;33.10;99.90;;;;;;4148689;28;20577;-93
2022/08/16 09:34:46;;;;;;;7.95;4.40;;;32.90;99.90;;;;;;4148897;28;20169;-92
2022/08/16 09:36:47;;;;;;;8.05;3.88;;;32.70;99.90;;;;;;4116816;28;20189;-92
2022/08/16 09:38:48;;;;;;;10.75;3.58;;;33.00;99.90;;;;;;4116236;28;20197;-92
2022/08/16 09:40:48;;;;;;;7.82;3.22;;;32.90;99.90;;;;;;4132556;28;20494;-92
2022/08/16 09:42:52;;;;;;;8.75;3.53;;;33.00;99.90;;;;;;4148620;28;20684;-93
2022/08/16 09:44:53;;;;;;;4.50;3.30;;;33.90;99.90;;;;;;4116476;28;20677;-90
2022/08/16 09:46:54;;;;;;;7.20;3.70;;;34.00;99.90;;;;;;4132496;28;20184;-91
2022/08/16 09:48:57;;;;;;;6.90;3.30;;;33.90;99.90;;;;;;4148660;28;20196;-92
2022/08/16 09:50:57;;;;;;;10.18;3.10;;;34.20;99.90;;;;;;4148739;28;20160;-92
2022/08/16 09:52:58;;;;;;;4.22;2.80;;;33.80;99.90;;;;;;4116296;28;20205;-91
2022/08/16 09:54:59;;;;;;;5.38;3.30;;;33.60;99.90;;;;;;4148579;28;20287;-91
2022/08/16 09:57:00;;;;;;;3.83;3.30;;;33.10;99.90;;;;;;4132411;28;20177;-91
2022/08/16 09:59:03;;;;;;;6.32;3.55;;;32.20;99.90;;;;;;4148492;28;20188;-93
2022/08/16 10:01:04;;;;;;;6.28;3.50;;;31.70;99.90;;;;;;4148489;28;20251;-95
2022/08/16 10:03:05;;;;;;;7.60;3.75;;;31.40;99.90;;;;;;4116528;28;20205;-94
2022/08/16 10:05:06;;;;;;;10.13;3.53;;;31.40;99.90;;;;;;4116765;28;20217;-92
2022/08/16 10:07:07;;;;;;;6.00;3.47;;;31.70;99.90;;;;;;4116051;28;20566;-94
2022/08/16 10:09:10;;;;;;;5.75;2.90;;;32.20;99.90;;;;;;4148656;28;20180;-94
2022/08/16 10:13:33;;;;;;;6.78;3.15;;;31.80;99.90;;;;;;4164701;28;20234;-94
2022/08/16 10:15:35;;;;;;;9.23;3.40;;;31.70;99.90;;;;;;4148613;28;20180;-92
2022/08/16 10:17:40;;;;;;;6.05;3.08;;;31.40;99.90;;;;;;4148570;28;20292;-93
2022/08/16 10:19:41;;;;;;;8.68;3.20;;;31.00;99.90;;;;;;4148541;28;20169;-93
2022/08/16 10:21:42;;;;;;;4.93;3.13;;;30.70;99.90;;;;;;4116513;28;20180;-92
2022/08/16 10:23:44;;;;;;;7.97;3.15;;;30.80;99.90;;;;;;4148428;28;20179;-93
2022/08/16 10:25:45;;;;;;;6.68;3.40;;;31.00;99.90;;;;;;4148328;28;20177;-92
2022/08/16 10:27:46;;;;;;;5.18;2.90;;;31.00;99.90;;;;;;4148346;28;20557;-94
2022/08/16 10:29:47;;;;;;;5.78;3.20;;;30.70;99.90;;;;;;4148197;28;20320;-94
2022/08/16 10:31:48;;;;;;;7.15;3.53;;;30.20;99.90;;;;;;4116013;28;20170;-94
2022/08/16 10:33:48;;;;;;;8.70;3.53;;;29.80;99.90;;;;;;4148233;28;20276;-92